Accueil
METAR-TAF:

METAR-TAF

Aéroports :

Aéroport international de Chuuk

Weno, Micronésie

latitude: 07-28N, longitude: 151-51E, altitude: 3 m

Observation

Le bulletin a été fait il y a 1 heure et 9 minutes, à 03:50 UTC
Vent 7 kt de est/sud-est
Température 31°C
Humidité 75%
Pression 1007 hPa
Visibilité: 24.1 km
Quelques nuages à une hauteur de 1200 ft
Nuages fragmentés à une hauteur de 12000 ft
Ciel couvert à une hauteur de 28000 ft

METAR: PTKK 230350Z 12007KT 15SM FEW012 BKN120 OVC280 31/26 A2975 RMK SLP076 T03110258

Heure: 14:59 (04:59 UTC)

Prévision

Le bulletin a été fait il y a 5 heures et 20 minutes, à 23:39 UTC
Prévision valable du 23 à 00 UTC au 23 à 24 UTC
Vent 8 kt de sud-est
Visibilité: 10 km
Nuages épars à une hauteur de 1600 ft
Nuages épars à une hauteur de 4000 ft
Nuages fragmentés à une hauteur de 12000 ft
averses à proximité

TAF: PTKK 222339Z 2300/2324 13008KT P6SM VCSH SCT016 SCT040 BKN120

Observations et prévisions météorologiques de plus de 4000 aéroports (messages METAR et TAF).

Les stations disponibles sont représentées par des disques jaunes et rouges sur la carte.

Passer la souris dessus pour voir le nom de la station.

Cliquer dessus pour voir les observations et prévisions météorologiques.

Pour changer de carte: cliquez sur les boutons verts avec une croix noire pour zoomer, sur le bouton vert avec un tiret pour effectuer un zoom arrière, ou sur les flèches vertes pour les cartes adjacentes.


METAR-TAF: